sensor_id;sensor_type;location;lat;lon;timestamp;temperature;humidity
33269;DHT22;19640;50.944;5.260;2023-05-14T00:01:57;14.30;99.90
33269;DHT22;19640;50.944;5.260;2023-05-14T00:04:23;14.30;99.90
33269;DHT22;19640;50.944;5.260;2023-05-14T00:06:49;14.30;99.90
33269;DHT22;19640;50.944;5.260;2023-05-14T00:09:15;14.40;99.90
33269;DHT22;19640;50.944;5.260;2023-05-14T00:11:41;14.30;99.90
33269;DHT22;19640;50.944;5.260;2023-05-14T00:14:06;14.00;99.90
33269;DHT22;19640;50.944;5.260;2023-05-14T00:16:32;13.80;99.90
33269;DHT22;19640;50.944;5.260;2023-05-14T00:18:57;13.60;99.90
33269;DHT22;19640;50.944;5.260;2023-05-14T00:21:23;13.30;99.90
33269;DHT22;19640;50.944;5.260;2023-05-14T00:23:49;12.70;99.90
33269;DHT22;19640;50.944;5.260;2023-05-14T00:26:15;12.30;99.90
33269;DHT22;19640;50.944;5.260;2023-05-14T00:28:40;12.00;99.90
33269;DHT22;19640;50.944;5.260;2023-05-14T00:31:06;11.80;99.90
33269;DHT22;19640;50.944;5.260;2023-05-14T00:33:32;11.60;99.90
33269;DHT22;19640;50.944;5.260;2023-05-14T00:35:57;11.50;99.90
33269;DHT22;19640;50.944;5.260;2023-05-14T00:38:23;11.90;99.90
33269;DHT22;19640;50.944;5.260;2023-05-14T00:40:52;12.30;99.90
33269;DHT22;19640;50.944;5.260;2023-05-14T00:43:21;12.70;99.90
33269;DHT22;19640;50.944;5.260;2023-05-14T00:45:52;12.90;99.90
33269;DHT22;19640;50.944;5.260;2023-05-14T00:48:19;12.90;99.90
33269;DHT22;19640;50.944;5.260;2023-05-14T00:50:46;12.50;99.90
33269;DHT22;19640;50.944;5.260;2023-05-14T00:53:12;11.90;99.90
33269;DHT22;19640;50.944;5.260;2023-05-14T00:55:41;11.80;99.90
33269;DHT22;19640;50.944;5.260;2023-05-14T00:58:10;11.90;99.90
33269;DHT22;19640;50.944;5.260;2023-05-14T01:00:36;12.00;99.90
33269;DHT22;19640;50.944;5.260;2023-05-14T01:03:03;11.70;99.90
33269;DHT22;19640;50.944;5.260;2023-05-14T01:05:38;11.60;99.90
33269;DHT22;19640;50.944;5.260;2023-05-14T01:11:00;12.10;99.90
33269;DHT22;19640;50.944;5.260;2023-05-14T01:13:35;12.50;99.90
33269;DHT22;19640;50.944;5.260;2023-05-14T01:16:03;12.50;99.90
33269;DHT22;19640;50.944;5.260;2023-05-14T01:18:31;12.70;99.90
33269;DHT22;19640;50.944;5.260;2023-05-14T01:20:57;12.80;99.90
33269;DHT22;19640;50.944;5.260;2023-05-14T01:23:23;12.70;99.90
33269;DHT22;19640;50.944;5.260;2023-05-14T01:25:49;12.70;99.90
33269;DHT22;19640;50.944;5.260;2023-05-14T01:28:21;12.60;99.90
33269;DHT22;19640;50.944;5.260;2023-05-14T01:31:11;12.20;99.90
33269;DHT22;19640;50.944;5.260;2023-05-14T01:33:40;12.10;99.90
33269;DHT22;19640;50.944;5.260;2023-05-14T01:36:07;12.10;99.90
33269;DHT22;19640;50.944;5.260;2023-05-14T01:38:34;12.30;99.90
33269;DHT22;19640;50.944;5.260;2023-05-14T01:41:01;12.50;99.90
33269;DHT22;19640;50.944;5.260;2023-05-14T01:43:27;12.60;99.90
33269;DHT22;19640;50.944;5.260;2023-05-14T01:45:53;12.50;99.90
33269;DHT22;19640;50.944;5.260;2023-05-14T01:48:20;11.90;99.90
33269;DHT22;19640;50.944;5.260;2023-05-14T01:50:45;12.00;99.90
33269;DHT22;19640;50.944;5.260;2023-05-14T01:53:11;12.20;99.90
33269;DHT22;19640;50.944;5.260;2023-05-14T01:55:37;12.30;99.90
33269;DHT22;19640;50.944;5.260;2023-05-14T01:58:03;12.40;99.90
33269;DHT22;19640;50.944;5.260;2023-05-14T02:00:28;12.50;99.90
33269;DHT22;19640;50.944;5.260;2023-05-14T02:02:55;12.60;99.90
33269;DHT22;19640;50.944;5.260;2023-05-14T02:05:20;12.50;99.90
33269;DHT22;19640;50.944;5.260;2023-05-14T02:07:46;12.40;99.90
33269;DHT22;19640;50.944;5.260;2023-05-14T02:10:11;11.80;99.90
33269;DHT22;19640;50.944;5.260;2023-05-14T02:12:37;11.70;99.90
33269;DHT22;19640;50.944;5.260;2023-05-14T02:15:03;11.90;99.90
33269;DHT22;19640;50.944;5.260;2023-05-14T02:17:29;12.10;99.90
33269;DHT22;19640;50.944;5.260;2023-05-14T02:19:55;12.30;99.90
33269;DHT22;19640;50.944;5.260;2023-05-14T02:22:20;12.50;99.90
33269;DHT22;19640;50.944;5.260;2023-05-14T02:24:46;12.50;99.90
33269;DHT22;19640;50.944;5.260;2023-05-14T02:27:14;12.00;99.90
33269;DHT22;19640;50.944;5.260;2023-05-14T02:29:39;11.80;99.90
33269;DHT22;19640;50.944;5.260;2023-05-14T02:32:05;12.00;99.90
33269;DHT22;19640;50.944;5.260;2023-05-14T02:34:31;12.10;99.90
33269;DHT22;19640;50.944;5.260;2023-05-14T02:36:58;12.20;99.90
33269;DHT22;19640;50.944;5.260;2023-05-14T02:39:24;12.30;99.90
33269;DHT22;19640;50.944;5.260;2023-05-14T02:41:50;12.40;99.90
33269;DHT22;19640;50.944;5.260;2023-05-14T02:44:16;12.40;99.90
33269;DHT22;19640;50.944;5.260;2023-05-14T02:46:42;12.20;99.90
33269;DHT22;19640;50.944;5.260;2023-05-14T02:49:07;12.20;99.90
33269;DHT22;19640;50.944;5.260;2023-05-14T02:51:33;12.20;99.90
33269;DHT22;19640;50.944;5.260;2023-05-14T02:53:59;12.40;99.90
33269;DHT22;19640;50.944;5.260;2023-05-14T02:56:24;12.30;99.90
33269;DHT22;19640;50.944;5.260;2023-05-14T02:58:50;12.30;99.90
33269;DHT22;19640;50.944;5.260;2023-05-14T03:01:16;12.40;99.90
33269;DHT22;19640;50.944;5.260;2023-05-14T03:03:43;12.50;99.90
33269;DHT22;19640;50.944;5.260;2023-05-14T03:06:08;12.40;99.90
33269;DHT22;19640;50.944;5.260;2023-05-14T03:08:34;12.60;99.90
33269;DHT22;19640;50.944;5.260;2023-05-14T03:11:00;12.70;99.90
33269;DHT22;19640;50.944;5.260;2023-05-14T03:13:26;12.20;99.90
33269;DHT22;19640;50.944;5.260;2023-05-14T03:15:51;12.20;99.90
33269;DHT22;19640;50.944;5.260;2023-05-14T03:18:21;12.00;99.90
33269;DHT22;19640;50.944;5.260;2023-05-14T03:20:47;12.00;99.90
33269;DHT22;19640;50.944;5.260;2023-05-14T03:23:13;12.00;99.90
33269;DHT22;19640;50.944;5.260;2023-05-14T03:25:39;11.90;99.90
33269;DHT22;19640;50.944;5.260;2023-05-14T03:28:05;11.90;99.90
33269;DHT22;19640;50.944;5.260;2023-05-14T03:30:31;11.50;99.90
33269;DHT22;19640;50.944;5.260;2023-05-14T03:32:57;11.20;99.90
33269;DHT22;19640;50.944;5.260;2023-05-14T03:35:22;10.80;99.90
33269;DHT22;19640;50.944;5.260;2023-05-14T03:37:48;10.40;99.90
33269;DHT22;19640;50.944;5.260;2023-05-14T03:40:14;10.60;99.90
33269;DHT22;19640;50.944;5.260;2023-05-14T03:42:40;10.80;99.90
33269;DHT22;19640;50.944;5.260;2023-05-14T03:45:06;11.10;99.90
33269;DHT22;19640;50.944;5.260;2023-05-14T03:47:32;11.30;99.90
33269;DHT22;19640;50.944;5.260;2023-05-14T03:49:57;11.60;99.90
33269;DHT22;19640;50.944;5.260;2023-05-14T03:52:23;11.80;99.90
33269;DHT22;19640;50.944;5.260;2023-05-14T03:54:49;11.70;99.90
33269;DHT22;19640;50.944;5.260;2023-05-14T03:57:15;11.70;99.90
33269;DHT22;19640;50.944;5.260;2023-05-14T03:59:40;11.80;99.90
33269;DHT22;19640;50.944;5.260;2023-05-14T04:02:06;11.80;99.90
33269;DHT22;19640;50.944;5.260;2023-05-14T04:04:32;12.00;99.90
33269;DHT22;19640;50.944;5.260;2023-05-14T04:06:58;12.10;99.90
33269;DHT22;19640;50.944;5.260;2023-05-14T04:09:23;12.00;99.90
33269;DHT22;19640;50.944;5.260;2023-05-14T04:11:49;12.10;99.90
33269;DHT22;19640;50.944;5.260;2023-05-14T04:14:15;12.10;99.90
33269;DHT22;19640;50.944;5.260;2023-05-14T04:16:41;12.10;99.90
33269;DHT22;19640;50.944;5.260;2023-05-14T04:19:06;12.20;99.90
33269;DHT22;19640;50.944;5.260;2023-05-14T04:21:32;12.40;99.90
33269;DHT22;19640;50.944;5.260;2023-05-14T04:23:58;12.40;99.90
33269;DHT22;19640;50.944;5.260;2023-05-14T04:26:23;12.40;99.90
33269;DHT22;19640;50.944;5.260;2023-05-14T04:28:49;12.50;99.90
33269;DHT22;19640;50.944;5.260;2023-05-14T04:31:15;12.40;99.90
33269;DHT22;19640;50.944;5.260;2023-05-14T04:33:40;12.60;99.90
33269;DHT22;19640;50.944;5.260;2023-05-14T04:36:06;12.60;99.90
33269;DHT22;19640;50.944;5.260;2023-05-14T04:38:32;12.50;99.90
33269;DHT22;19640;50.944;5.260;2023-05-14T04:40:58;12.50;99.90
33269;DHT22;19640;50.944;5.260;2023-05-14T04:43:24;12.70;99.90
33269;DHT22;19640;50.944;5.260;2023-05-14T04:45:50;12.70;99.90
33269;DHT22;19640;50.944;5.260;2023-05-14T04:48:17;12.60;99.90
33269;DHT22;19640;50.944;5.260;2023-05-14T04:50:42;12.60;99.90
33269;DHT22;19640;50.944;5.260;2023-05-14T04:53:09;12.70;99.90
33269;DHT22;19640;50.944;5.260;2023-05-14T04:55:35;12.90;99.90
33269;DHT22;19640;50.944;5.260;2023-05-14T04:58:01;13.00;99.90
33269;DHT22;19640;50.944;5.260;2023-05-14T05:00:27;13.10;99.90
33269;DHT22;19640;50.944;5.260;2023-05-14T05:02:53;13.10;99.90
33269;DHT22;19640;50.944;5.260;2023-05-14T05:05:19;13.00;99.90
33269;DHT22;19640;50.944;5.260;2023-05-14T05:07:45;13.10;99.90
33269;DHT22;19640;50.944;5.260;2023-05-14T05:10:10;13.10;99.90
33269;DHT22;19640;50.944;5.260;2023-05-14T05:12:36;13.00;99.90
33269;DHT22;19640;50.944;5.260;2023-05-14T05:15:02;13.20;99.90
33269;DHT22;19640;50.944;5.260;2023-05-14T05:17:28;13.40;99.90
33269;DHT22;19640;50.944;5.260;2023-05-14T05:19:53;13.60;99.90
33269;DHT22;19640;50.944;5.260;2023-05-14T05:22:19;13.80;99.90
33269;DHT22;19640;50.944;5.260;2023-05-14T05:24:45;13.70;99.90
33269;DHT22;19640;50.944;5.260;2023-05-14T05:27:11;13.80;99.90
33269;DHT22;19640;50.944;5.260;2023-05-14T05:29:36;13.80;99.90
33269;DHT22;19640;50.944;5.260;2023-05-14T05:32:02;13.90;99.90
33269;DHT22;19640;50.944;5.260;2023-05-14T05:34:28;14.10;99.90
33269;DHT22;19640;50.944;5.260;2023-05-14T05:36:54;14.10;99.90
33269;DHT22;19640;50.944;5.260;2023-05-14T05:39:19;13.90;99.90
33269;DHT22;19640;50.944;5.260;2023-05-14T05:41:45;13.90;99.90
33269;DHT22;19640;50.944;5.260;2023-05-14T05:44:11;13.90;99.90
33269;DHT22;19640;50.944;5.260;2023-05-14T05:46:36;13.90;99.90
33269;DHT22;19640;50.944;5.260;2023-05-14T05:49:02;13.70;99.90
33269;DHT22;19640;50.944;5.260;2023-05-14T05:51:28;13.80;99.90
33269;DHT22;19640;50.944;5.260;2023-05-14T05:53:54;13.90;99.90
33269;DHT22;19640;50.944;5.260;2023-05-14T05:56:20;14.10;99.90
33269;DHT22;19640;50.944;5.260;2023-05-14T05:58:46;14.00;99.90
33269;DHT22;19640;50.944;5.260;2023-05-14T06:01:12;14.00;99.90
33269;DHT22;19640;50.944;5.260;2023-05-14T06:03:38;14.00;99.90
33269;DHT22;19640;50.944;5.260;2023-05-14T06:06:05;14.10;99.90
33269;DHT22;19640;50.944;5.260;2023-05-14T06:08:30;14.10;99.90
33269;DHT22;19640;50.944;5.260;2023-05-14T06:10:56;14.20;99.90
33269;DHT22;19640;50.944;5.260;2023-05-14T06:13:22;14.30;99.90
33269;DHT22;19640;50.944;5.260;2023-05-14T06:15:48;14.50;99.90
33269;DHT22;19640;50.944;5.260;2023-05-14T06:18:13;14.60;99.90
33269;DHT22;19640;50.944;5.260;2023-05-14T06:20:39;14.80;99.90
33269;DHT22;19640;50.944;5.260;2023-05-14T06:23:06;14.80;99.90
33269;DHT22;19640;50.944;5.260;2023-05-14T06:25:32;14.70;99.90
33269;DHT22;19640;50.944;5.260;2023-05-14T06:27:58;14.60;99.90
33269;DHT22;19640;50.944;5.260;2023-05-14T06:30:24;14.60;99.90
33269;DHT22;19640;50.944;5.260;2023-05-14T06:32:49;14.70;99.90
33269;DHT22;19640;50.944;5.260;2023-05-14T06:35:17;14.70;99.90
33269;DHT22;19640;50.944;5.260;2023-05-14T06:37:43;14.70;99.90
33269;DHT22;19640;50.944;5.260;2023-05-14T06:40:09;14.80;99.90
33269;DHT22;19640;50.944;5.260;2023-05-14T06:42:35;14.80;99.90
33269;DHT22;19640;50.944;5.260;2023-05-14T06:45:01;15.00;99.90
33269;DHT22;19640;50.944;5.260;2023-05-14T06:47:26;14.70;99.90
33269;DHT22;19640;50.944;5.260;2023-05-14T06:49:52;15.00;99.90
33269;DHT22;19640;50.944;5.260;2023-05-14T06:52:18;15.30;99.90
33269;DHT22;19640;50.944;5.260;2023-05-14T06:54:43;15.80;99.90
33269;DHT22;19640;50.944;5.260;2023-05-14T06:57:09;16.30;99.90
33269;DHT22;19640;50.944;5.260;2023-05-14T06:59:35;16.50;99.90
33269;DHT22;19640;50.944;5.260;2023-05-14T07:02:01;17.00;99.90
33269;DHT22;19640;50.944;5.260;2023-05-14T07:04:27;17.70;99.90
33269;DHT22;19640;50.944;5.260;2023-05-14T07:06:53;18.10;99.90
33269;DHT22;19640;50.944;5.260;2023-05-14T07:09:19;18.60;99.90
33269;DHT22;19640;50.944;5.260;2023-05-14T07:11:44;19.20;99.90
33269;DHT22;19640;50.944;5.260;2023-05-14T07:14:10;19.70;99.90
33269;DHT22;19640;50.944;5.260;2023-05-14T07:16:36;19.70;99.90
33269;DHT22;19640;50.944;5.260;2023-05-14T07:19:02;19.60;99.90
33269;DHT22;19640;50.944;5.260;2023-05-14T07:21:27;19.80;99.90
33269;DHT22;19640;50.944;5.260;2023-05-14T07:23:53;19.80;99.90
33269;DHT22;19640;50.944;5.260;2023-05-14T07:26:19;19.50;99.90
33269;DHT22;19640;50.944;5.260;2023-05-14T07:28:45;18.50;99.90
33269;DHT22;19640;50.944;5.260;2023-05-14T07:31:11;18.10;99.90
33269;DHT22;19640;50.944;5.260;2023-05-14T07:33:37;17.60;99.90
33269;DHT22;19640;50.944;5.260;2023-05-14T07:36:03;17.40;99.90
33269;DHT22;19640;50.944;5.260;2023-05-14T07:38:30;17.10;99.90
33269;DHT22;19640;50.944;5.260;2023-05-14T07:40:56;17.50;99.90
33269;DHT22;19640;50.944;5.260;2023-05-14T07:43:21;18.00;99.90
33269;DHT22;19640;50.944;5.260;2023-05-14T07:45:47;18.20;99.90
33269;DHT22;19640;50.944;5.260;2023-05-14T07:48:13;18.20;99.90
33269;DHT22;19640;50.944;5.260;2023-05-14T07:50:39;18.30;99.90
33269;DHT22;19640;50.944;5.260;2023-05-14T07:53:05;18.40;99.90
33269;DHT22;19640;50.944;5.260;2023-05-14T07:55:30;18.70;99.90
33269;DHT22;19640;50.944;5.260;2023-05-14T07:57:56;18.50;99.90
33269;DHT22;19640;50.944;5.260;2023-05-14T08:00:21;18.30;99.90
33269;DHT22;19640;50.944;5.260;2023-05-14T08:02:47;18.30;99.90
33269;DHT22;19640;50.944;5.260;2023-05-14T08:05:13;18.30;99.90
33269;DHT22;19640;50.944;5.260;2023-05-14T08:07:39;18.40;99.90
33269;DHT22;19640;50.944;5.260;2023-05-14T08:10:06;18.60;99.90
33269;DHT22;19640;50.944;5.260;2023-05-14T08:12:32;18.60;99.90
33269;DHT22;19640;50.944;5.260;2023-05-14T08:14:58;18.80;99.90
33269;DHT22;19640;50.944;5.260;2023-05-14T08:17:23;19.00;99.90
33269;DHT22;19640;50.944;5.260;2023-05-14T08:19:49;19.10;99.90
33269;DHT22;19640;50.944;5.260;2023-05-14T08:22:15;19.20;99.90
33269;DHT22;19640;50.944;5.260;2023-05-14T08:24:40;19.20;99.90
33269;DHT22;19640;50.944;5.260;2023-05-14T08:27:08;19.00;99.90
33269;DHT22;19640;50.944;5.260;2023-05-14T08:29:34;19.00;99.90
33269;DHT22;19640;50.944;5.260;2023-05-14T08:31:59;19.00;99.90
33269;DHT22;19640;50.944;5.260;2023-05-14T08:34:25;19.00;99.90
33269;DHT22;19640;50.944;5.260;2023-05-14T08:36:52;19.00;99.90
33269;DHT22;19640;50.944;5.260;2023-05-14T08:39:18;18.80;99.90
33269;DHT22;19640;50.944;5.260;2023-05-14T08:41:44;18.60;99.90
33269;DHT22;19640;50.944;5.260;2023-05-14T08:44:17;18.40;99.90
33269;DHT22;19640;50.944;5.260;2023-05-14T08:46:44;18.20;99.90
33269;DHT22;19640;50.944;5.260;2023-05-14T08:51:43;18.70;99.90
33269;DHT22;19640;50.944;5.260;2023-05-14T08:54:11;19.00;99.90
33269;DHT22;19640;50.944;5.260;2023-05-14T08:56:43;19.30;99.90
33269;DHT22;19640;50.944;5.260;2023-05-14T08:59:10;19.40;99.90
33269;DHT22;19640;50.944;5.260;2023-05-14T09:01:37;19.30;99.90
33269;DHT22;19640;50.944;5.260;2023-05-14T09:04:05;19.30;99.90
33269;DHT22;19640;50.944;5.260;2023-05-14T09:06:35;19.30;99.90
33269;DHT22;19640;50.944;5.260;2023-05-14T09:09:02;19.40;99.90
33269;DHT22;19640;50.944;5.260;2023-05-14T09:11:28;19.60;99.90
33269;DHT22;19640;50.944;5.260;2023-05-14T09:13:54;19.70;99.90
33269;DHT22;19640;50.944;5.260;2023-05-14T09:16:20;19.60;99.90
33269;DHT22;19640;50.944;5.260;2023-05-14T09:18:46;19.40;99.90
33269;DHT22;19640;50.944;5.260;2023-05-14T09:21:13;19.40;99.90
33269;DHT22;19640;50.944;5.260;2023-05-14T09:23:42;19.40;99.90
33269;DHT22;19640;50.944;5.260;2023-05-14T09:26:09;19.50;99.90
33269;DHT22;19640;50.944;5.260;2023-05-14T09:28:35;19.80;99.90
33269;DHT22;19640;50.944;5.260;2023-05-14T09:31:03;19.80;99.90
33269;DHT22;19640;50.944;5.260;2023-05-14T09:33:29;20.00;99.90
33269;DHT22;19640;50.944;5.260;2023-05-14T09:35:59;20.10;99.90
33269;DHT22;19640;50.944;5.260;2023-05-14T09:38:32;20.00;99.90
33269;DHT22;19640;50.944;5.260;2023-05-14T09:40:59;20.10;99.90
33269;DHT22;19640;50.944;5.260;2023-05-14T09:43:25;20.30;99.90
33269;DHT22;19640;50.944;5.260;2023-05-14T09:45:51;20.30;99.90
33269;DHT22;19640;50.944;5.260;2023-05-14T09:48:18;20.20;99.90
33269;DHT22;19640;50.944;5.260;2023-05-14T09:50:45;19.80;99.90
33269;DHT22;19640;50.944;5.260;2023-05-14T09:53:11;19.90;99.90
33269;DHT22;19640;50.944;5.260;2023-05-14T09:55:38;20.10;99.90
33269;DHT22;19640;50.944;5.260;2023-05-14T09:58:03;20.00;99.90
33269;DHT22;19640;50.944;5.260;2023-05-14T10:00:33;19.90;99.90
33269;DHT22;19640;50.944;5.260;2023-05-14T10:03:04;20.20;99.90
33269;DHT22;19640;50.944;5.260;2023-05-14T10:05:35;20.30;99.90
33269;DHT22;19640;50.944;5.260;2023-05-14T10:08:07;20.00;99.90
33269;DHT22;19640;50.944;5.260;2023-05-14T10:10:34;20.00;99.90
33269;DHT22;19640;50.944;5.260;2023-05-14T10:13:12;20.00;99.90
33269;DHT22;19640;50.944;5.260;2023-05-14T10:18:11;20.10;99.90
33269;DHT22;19640;50.944;5.260;2023-05-14T10:20:39;20.20;99.90
33269;DHT22;19640;50.944;5.260;2023-05-14T10:23:05;20.30;99.90
33269;DHT22;19640;50.944;5.260;2023-05-14T10:25:33;20.20;99.90
33269;DHT22;19640;50.944;5.260;2023-05-14T10:27:59;20.20;99.90
33269;DHT22;19640;50.944;5.260;2023-05-14T10:30:25;20.10;99.90
33269;DHT22;19640;50.944;5.260;2023-05-14T10:33:20;20.10;99.90
33269;DHT22;19640;50.944;5.260;2023-05-14T10:36:06;20.30;99.90
33269;DHT22;19640;50.944;5.260;2023-05-14T10:38:36;20.30;99.90
33269;DHT22;19640;50.944;5.260;2023-05-14T10:41:04;20.30;99.90
33269;DHT22;19640;50.944;5.260;2023-05-14T10:43:35;20.40;99.90
33269;DHT22;19640;50.944;5.260;2023-05-14T10:46:01;20.60;99.90
33269;DHT22;19640;50.944;5.260;2023-05-14T10:48:28;20.30;99.90
33269;DHT22;19640;50.944;5.260;2023-05-14T10:50:55;19.90;99.90
33269;DHT22;19640;50.944;5.260;2023-05-14T10:53:33;20.20;99.90
33269;DHT22;19640;50.944;5.260;2023-05-14T10:56:04;20.00;99.90
33269;DHT22;19640;50.944;5.260;2023-05-14T10:58:30;20.30;99.90
33269;DHT22;19640;50.944;5.260;2023-05-14T11:00:59;20.40;99.90
33269;DHT22;19640;50.944;5.260;2023-05-14T11:03:29;20.80;99.90
33269;DHT22;19640;50.944;5.260;2023-05-14T11:05:56;20.50;99.90
33269;DHT22;19640;50.944;5.260;2023-05-14T11:08:25;20.60;99.90
33269;DHT22;19640;50.944;5.260;2023-05-14T11:10:51;20.60;99.90
33269;DHT22;19640;50.944;5.260;2023-05-14T11:13:18;20.70;99.90
33269;DHT22;19640;50.944;5.260;2023-05-14T11:15:45;20.90;99.90
33269;DHT22;19640;50.944;5.260;2023-05-14T11:18:12;21.30;99.90
33269;DHT22;19640;50.944;5.260;2023-05-14T11:20:38;21.30;99.90
33269;DHT22;19640;50.944;5.260;2023-05-14T11:23:03;21.40;99.90
33269;DHT22;19640;50.944;5.260;2023-05-14T11:25:29;21.70;99.90
33269;DHT22;19640;50.944;5.260;2023-05-14T11:27:55;21.80;99.90
33269;DHT22;19640;50.944;5.260;2023-05-14T11:30:23;21.80;99.90
33269;DHT22;19640;50.944;5.260;2023-05-14T11:32:49;21.50;99.90
33269;DHT22;19640;50.944;5.260;2023-05-14T11:35:16;21.40;99.90
33269;DHT22;19640;50.944;5.260;2023-05-14T11:37:47;21.70;99.90
33269;DHT22;19640;50.944;5.260;2023-05-14T11:40:14;22.00;99.90
33269;DHT22;19640;50.944;5.260;2023-05-14T11:42:43;21.90;99.90
33269;DHT22;19640;50.944;5.260;2023-05-14T11:45:11;22.00;99.90
33269;DHT22;19640;50.944;5.260;2023-05-14T11:47:37;21.60;99.90
33269;DHT22;19640;50.944;5.260;2023-05-14T11:50:03;21.60;99.90
33269;DHT22;19640;50.944;5.260;2023-05-14T11:52:29;21.70;99.90
33269;DHT22;19640;50.944;5.260;2023-05-14T11:54:54;22.00;99.90
33269;DHT22;19640;50.944;5.260;2023-05-14T11:57:21;22.30;99.90
33269;DHT22;19640;50.944;5.260;2023-05-14T11:59:48;22.50;99.90
33269;DHT22;19640;50.944;5.260;2023-05-14T12:02:20;22.10;99.90
33269;DHT22;19640;50.944;5.260;2023-05-14T12:04:50;22.30;99.90
33269;DHT22;19640;50.944;5.260;2023-05-14T12:07:18;22.50;99.90
33269;DHT22;19640;50.944;5.260;2023-05-14T12:09:46;22.30;99.90
33269;DHT22;19640;50.944;5.260;2023-05-14T12:12:16;22.00;99.90
33269;DHT22;19640;50.944;5.260;2023-05-14T12:14:43;21.90;99.90
33269;DHT22;19640;50.944;5.260;2023-05-14T12:17:20;21.90;99.90
33269;DHT22;19640;50.944;5.260;2023-05-14T12:19:52;21.90;99.90
33269;DHT22;19640;50.944;5.260;2023-05-14T12:22:21;21.80;99.90
33269;DHT22;19640;50.944;5.260;2023-05-14T12:24:54;21.70;99.90
33269;DHT22;19640;50.944;5.260;2023-05-14T12:27:22;21.60;99.90
33269;DHT22;19640;50.944;5.260;2023-05-14T12:29:49;21.60;99.90
33269;DHT22;19640;50.944;5.260;2023-05-14T12:32:18;21.70;99.90
33269;DHT22;19640;50.944;5.260;2023-05-14T12:34:44;21.50;99.90
33269;DHT22;19640;50.944;5.260;2023-05-14T12:37:10;21.50;99.90
33269;DHT22;19640;50.944;5.260;2023-05-14T12:39:35;21.30;99.90
33269;DHT22;19640;50.944;5.260;2023-05-14T12:42:02;21.30;99.90
33269;DHT22;19640;50.944;5.260;2023-05-14T12:44:27;21.40;99.90
33269;DHT22;19640;50.944;5.260;2023-05-14T12:46:53;21.30;99.90
33269;DHT22;19640;50.944;5.260;2023-05-14T12:49:19;21.20;99.90
33269;DHT22;19640;50.944;5.260;2023-05-14T12:51:45;21.00;99.90
33269;DHT22;19640;50.944;5.260;2023-05-14T12:54:11;21.20;99.90
33269;DHT22;19640;50.944;5.260;2023-05-14T12:56:37;21.10;99.90
33269;DHT22;19640;50.944;5.260;2023-05-14T12:59:03;21.10;99.90
33269;DHT22;19640;50.944;5.260;2023-05-14T13:01:29;21.40;99.90
33269;DHT22;19640;50.944;5.260;2023-05-14T13:03:55;21.60;99.90
33269;DHT22;19640;50.944;5.260;2023-05-14T13:06:21;21.80;99.90
33269;DHT22;19640;50.944;5.260;2023-05-14T13:08:46;22.00;99.90
33269;DHT22;19640;50.944;5.260;2023-05-14T13:11:12;21.70;99.90
33269;DHT22;19640;50.944;5.260;2023-05-14T13:13:38;21.90;99.90
33269;DHT22;19640;50.944;5.260;2023-05-14T13:16:04;22.10;99.90
33269;DHT22;19640;50.944;5.260;2023-05-14T13:18:29;22.10;99.90
33269;DHT22;19640;50.944;5.260;2023-05-14T13:20:55;22.10;99.90
33269;DHT22;19640;50.944;5.260;2023-05-14T13:23:21;21.90;99.70
33269;DHT22;19640;50.944;5.260;2023-05-14T13:25:47;21.70;99.90
33269;DHT22;19640;50.944;5.260;2023-05-14T13:28:12;21.50;99.60
33269;DHT22;19640;50.944;5.260;2023-05-14T13:30:38;21.30;99.90
33269;DHT22;19640;50.944;5.260;2023-05-14T13:33:04;21.30;99.30
33269;DHT22;19640;50.944;5.260;2023-05-14T13:35:30;21.30;99.90
33269;DHT22;19640;50.944;5.260;2023-05-14T13:37:55;21.40;99.90
33269;DHT22;19640;50.944;5.260;2023-05-14T13:40:21;21.30;99.90
33269;DHT22;19640;50.944;5.260;2023-05-14T13:42:47;21.40;99.90
33269;DHT22;19640;50.944;5.260;2023-05-14T13:45:12;21.40;99.90
33269;DHT22;19640;50.944;5.260;2023-05-14T13:47:38;21.50;99.40
33269;DHT22;19640;50.944;5.260;2023-05-14T13:50:04;21.60;99.90
33269;DHT22;19640;50.944;5.260;2023-05-14T13:52:30;21.50;99.50
33269;DHT22;19640;50.944;5.260;2023-05-14T13:54:56;21.40;99.90
33269;DHT22;19640;50.944;5.260;2023-05-14T13:57:21;21.20;99.90
33269;DHT22;19640;50.944;5.260;2023-05-14T13:59:47;21.30;99.90
33269;DHT22;19640;50.944;5.260;2023-05-14T14:02:14;21.60;99.90
33269;DHT22;19640;50.944;5.260;2023-05-14T14:04:39;21.70;99.30
33269;DHT22;19640;50.944;5.260;2023-05-14T14:07:05;21.60;99.50
33269;DHT22;19640;50.944;5.260;2023-05-14T14:09:31;21.50;99.80
33269;DHT22;19640;50.944;5.260;2023-05-14T14:12:03;21.40;99.30
33269;DHT22;19640;50.944;5.260;2023-05-14T14:14:29;21.30;99.80
33269;DHT22;19640;50.944;5.260;2023-05-14T14:16:54;21.40;99.90
33269;DHT22;19640;50.944;5.260;2023-05-14T14:19:20;21.40;99.50
33269;DHT22;19640;50.944;5.260;2023-05-14T14:21:46;21.50;99.90
33269;DHT22;19640;50.944;5.260;2023-05-14T14:24:12;21.70;99.90
33269;DHT22;19640;50.944;5.260;2023-05-14T14:26:38;21.90;99.40
33269;DHT22;19640;50.944;5.260;2023-05-14T14:29:04;22.00;99.90
33269;DHT22;19640;50.944;5.260;2023-05-14T14:31:29;22.00;98.30
33269;DHT22;19640;50.944;5.260;2023-05-14T14:33:55;22.10;99.10
33269;DHT22;19640;50.944;5.260;2023-05-14T14:36:21;22.00;97.30
33269;DHT22;19640;50.944;5.260;2023-05-14T14:38:46;22.00;98.50
33269;DHT22;19640;50.944;5.260;2023-05-14T14:41:12;22.10;99.60
33269;DHT22;19640;50.944;5.260;2023-05-14T14:43:39;22.40;98.40
33269;DHT22;19640;50.944;5.260;2023-05-14T14:46:05;22.50;98.60
33269;DHT22;19640;50.944;5.260;2023-05-14T14:48:34;22.60;96.20
33269;DHT22;19640;50.944;5.260;2023-05-14T14:51:04;22.50;96.80
33269;DHT22;19640;50.944;5.260;2023-05-14T14:53:30;22.40;96.20
33269;DHT22;19640;50.944;5.260;2023-05-14T14:55:56;22.40;99.10
33269;DHT22;19640;50.944;5.260;2023-05-14T14:58:23;22.30;96.50
33269;DHT22;19640;50.944;5.260;2023-05-14T15:00:52;22.30;98.40
33269;DHT22;19640;50.944;5.260;2023-05-14T15:03:17;22.40;99.00
33269;DHT22;19640;50.944;5.260;2023-05-14T15:05:44;22.40;98.70
33269;DHT22;19640;50.944;5.260;2023-05-14T15:08:09;22.60;97.80
33269;DHT22;19640;50.944;5.260;2023-05-14T15:10:35;22.40;97.20
33269;DHT22;19640;50.944;5.260;2023-05-14T15:13:03;22.40;98.90
33269;DHT22;19640;50.944;5.260;2023-05-14T15:15:29;22.40;98.20
33269;DHT22;19640;50.944;5.260;2023-05-14T15:17:56;22.40;96.40
33269;DHT22;19640;50.944;5.260;2023-05-14T15:20:22;22.50;96.30
33269;DHT22;19640;50.944;5.260;2023-05-14T15:22:48;22.30;98.40
33269;DHT22;19640;50.944;5.260;2023-05-14T15:25:19;22.40;98.60
33269;DHT22;19640;50.944;5.260;2023-05-14T15:27:45;22.60;95.50
33269;DHT22;19640;50.944;5.260;2023-05-14T15:30:11;22.50;96.90
33269;DHT22;19640;50.944;5.260;2023-05-14T15:32:37;22.40;95.90
33269;DHT22;19640;50.944;5.260;2023-05-14T15:35:03;22.20;95.80